sensor_id;sensor_type;location;lat;lon;timestamp;P1;durP1;ratioP1;P2;durP2;ratioP2
47251;SDS011;32991;51.374;11.586;2023-04-02T00:08:51;4.63;;;3.97;;
47251;SDS011;32991;51.374;11.586;2023-04-02T00:11:26;3.38;;;2.90;;
47251;SDS011;32991;51.374;11.586;2023-04-02T00:14:03;3.65;;;3.22;;
47251;SDS011;32991;51.374;11.586;2023-04-02T00:16:31;3.50;;;2.78;;
47251;SDS011;32991;51.374;11.586;2023-04-02T00:19:00;3.88;;;3.47;;
47251;SDS011;32991;51.374;11.586;2023-04-02T00:21:33;2.78;;;2.58;;
47251;SDS011;32991;51.374;11.586;2023-04-02T00:24:05;3.00;;;2.60;;
47251;SDS011;32991;51.374;11.586;2023-04-02T00:26:39;3.72;;;3.03;;
47251;SDS011;32991;51.374;11.586;2023-04-02T00:29:10;2.85;;;2.55;;
47251;SDS011;32991;51.374;11.586;2023-04-02T00:31:45;3.25;;;2.38;;
47251;SDS011;32991;51.374;11.586;2023-04-02T00:34:16;3.45;;;2.60;;
47251;SDS011;32991;51.374;11.586;2023-04-02T00:36:45;3.03;;;2.25;;
47251;SDS011;32991;51.374;11.586;2023-04-02T00:39:18;3.10;;;2.55;;
47251;SDS011;32991;51.374;11.586;2023-04-02T00:41:47;2.38;;;2.17;;
47251;SDS011;32991;51.374;11.586;2023-04-02T00:44:15;3.20;;;2.50;;
47251;SDS011;32991;51.374;11.586;2023-04-02T00:46:46;2.67;;;2.47;;
47251;SDS011;32991;51.374;11.586;2023-04-02T00:51:56;3.15;;;2.53;;
47251;SDS011;32991;51.374;11.586;2023-04-02T00:54:26;3.03;;;2.55;;
47251;SDS011;32991;51.374;11.586;2023-04-02T00:56:56;5.20;;;2.63;;
47251;SDS011;32991;51.374;11.586;2023-04-02T00:59:31;3.42;;;2.55;;
47251;SDS011;32991;51.374;11.586;2023-04-02T01:04:50;3.25;;;2.42;;
47251;SDS011;32991;51.374;11.586;2023-04-02T01:07:21;3.15;;;2.85;;
47251;SDS011;32991;51.374;11.586;2023-04-02T01:15:56;4.35;;;3.58;;
47251;SDS011;32991;51.374;11.586;2023-04-02T01:18:55;3.60;;;2.60;;
47251;SDS011;32991;51.374;11.586;2023-04-02T01:21:52;4.43;;;3.35;;
47251;SDS011;32991;51.374;11.586;2023-04-02T01:24:33;4.20;;;3.50;;
47251;SDS011;32991;51.374;11.586;2023-04-02T01:29:34;6.63;;;3.83;;
47251;SDS011;32991;51.374;11.586;2023-04-02T01:32:06;5.00;;;3.47;;
47251;SDS011;32991;51.374;11.586;2023-04-02T01:34:36;7.75;;;4.75;;
47251;SDS011;32991;51.374;11.586;2023-04-02T01:42:24;6.28;;;4.10;;
47251;SDS011;32991;51.374;11.586;2023-04-02T01:44:58;5.03;;;3.00;;
47251;SDS011;32991;51.374;11.586;2023-04-02T01:47:27;6.60;;;3.85;;
47251;SDS011;32991;51.374;11.586;2023-04-02T01:53:06;6.70;;;4.13;;
47251;SDS011;32991;51.374;11.586;2023-04-02T01:58:09;5.53;;;3.88;;
47251;SDS011;32991;51.374;11.586;2023-04-02T02:00:40;5.18;;;4.03;;
47251;SDS011;32991;51.374;11.586;2023-04-02T02:03:11;3.85;;;3.28;;
47251;SDS011;32991;51.374;11.586;2023-04-02T02:05:38;5.70;;;3.58;;
47251;SDS011;32991;51.374;11.586;2023-04-02T02:08:06;6.47;;;4.35;;
47251;SDS011;32991;51.374;11.586;2023-04-02T02:10:38;6.18;;;3.72;;
47251;SDS011;32991;51.374;11.586;2023-04-02T02:13:05;5.85;;;4.13;;
47251;SDS011;32991;51.374;11.586;2023-04-02T02:15:32;6.72;;;4.68;;
47251;SDS011;32991;51.374;11.586;2023-04-02T02:18:01;8.18;;;5.30;;
47251;SDS011;32991;51.374;11.586;2023-04-02T02:20:29;8.35;;;4.93;;
47251;SDS011;32991;51.374;11.586;2023-04-02T02:22:57;6.35;;;4.70;;
47251;SDS011;32991;51.374;11.586;2023-04-02T02:25:29;7.55;;;4.90;;
47251;SDS011;32991;51.374;11.586;2023-04-02T02:33:21;7.30;;;4.53;;
47251;SDS011;32991;51.374;11.586;2023-04-02T02:38:38;7.85;;;5.15;;
47251;SDS011;32991;51.374;11.586;2023-04-02T02:44:16;6.68;;;5.13;;
47251;SDS011;32991;51.374;11.586;2023-04-02T02:46:46;5.63;;;4.25;;
47251;SDS011;32991;51.374;11.586;2023-04-02T02:49:21;9.13;;;4.72;;
47251;SDS011;32991;51.374;11.586;2023-04-02T02:51:56;5.05;;;3.53;;
47251;SDS011;32991;51.374;11.586;2023-04-02T02:54:31;6.50;;;4.35;;
47251;SDS011;32991;51.374;11.586;2023-04-02T02:57:00;4.00;;;3.25;;
47251;SDS011;32991;51.374;11.586;2023-04-02T02:59:29;7.60;;;4.45;;
47251;SDS011;32991;51.374;11.586;2023-04-02T03:01:57;7.97;;;4.57;;
47251;SDS011;32991;51.374;11.586;2023-04-02T03:04:24;7.38;;;4.95;;
47251;SDS011;32991;51.374;11.586;2023-04-02T03:06:54;8.63;;;4.47;;
47251;SDS011;32991;51.374;11.586;2023-04-02T03:09:37;8.00;;;4.55;;
47251;SDS011;32991;51.374;11.586;2023-04-02T03:12:08;7.32;;;4.95;;
47251;SDS011;32991;51.374;11.586;2023-04-02T03:14:39;6.32;;;4.20;;
47251;SDS011;32991;51.374;11.586;2023-04-02T03:17:11;7.30;;;4.28;;
47251;SDS011;32991;51.374;11.586;2023-04-02T03:22:29;5.85;;;3.78;;
47251;SDS011;32991;51.374;11.586;2023-04-02T03:25:15;7.97;;;4.82;;
47251;SDS011;32991;51.374;11.586;2023-04-02T03:27:48;7.80;;;4.80;;
47251;SDS011;32991;51.374;11.586;2023-04-02T03:33:25;8.05;;;5.15;;
47251;SDS011;32991;51.374;11.586;2023-04-02T03:35:58;6.20;;;4.40;;
47251;SDS011;32991;51.374;11.586;2023-04-02T03:38:31;6.07;;;4.75;;
47251;SDS011;32991;51.374;11.586;2023-04-02T03:43:57;6.85;;;4.97;;
47251;SDS011;32991;51.374;11.586;2023-04-02T03:49:06;11.65;;;6.78;;
47251;SDS011;32991;51.374;11.586;2023-04-02T03:51:37;6.78;;;5.30;;
47251;SDS011;32991;51.374;11.586;2023-04-02T03:54:09;8.25;;;5.45;;
47251;SDS011;32991;51.374;11.586;2023-04-02T03:56:39;7.57;;;5.65;;
47251;SDS011;32991;51.374;11.586;2023-04-02T03:59:30;9.07;;;6.40;;
47251;SDS011;32991;51.374;11.586;2023-04-02T04:04:52;10.13;;;6.25;;
47251;SDS011;32991;51.374;11.586;2023-04-02T04:07:22;13.07;;;8.38;;
47251;SDS011;32991;51.374;11.586;2023-04-02T04:09:55;11.93;;;7.07;;
47251;SDS011;32991;51.374;11.586;2023-04-02T04:12:24;10.75;;;7.20;;
47251;SDS011;32991;51.374;11.586;2023-04-02T04:14:58;12.98;;;7.93;;
47251;SDS011;32991;51.374;11.586;2023-04-02T04:17:30;12.00;;;7.85;;
47251;SDS011;32991;51.374;11.586;2023-04-02T04:20:06;12.57;;;7.90;;
47251;SDS011;32991;51.374;11.586;2023-04-02T04:22:40;15.65;;;8.55;;
47251;SDS011;32991;51.374;11.586;2023-04-02T04:25:19;10.05;;;7.03;;
47251;SDS011;32991;51.374;11.586;2023-04-02T04:28:00;15.63;;;7.60;;
47251;SDS011;32991;51.374;11.586;2023-04-02T04:33:39;12.40;;;7.32;;
47251;SDS011;32991;51.374;11.586;2023-04-02T04:36:17;12.50;;;7.72;;
47251;SDS011;32991;51.374;11.586;2023-04-02T04:38:58;14.13;;;8.05;;
47251;SDS011;32991;51.374;11.586;2023-04-02T04:41:32;12.77;;;7.25;;
47251;SDS011;32991;51.374;11.586;2023-04-02T04:44:04;12.97;;;7.60;;
47251;SDS011;32991;51.374;11.586;2023-04-02T04:46:40;14.45;;;8.20;;
47251;SDS011;32991;51.374;11.586;2023-04-02T04:51:43;12.45;;;7.28;;
47251;SDS011;32991;51.374;11.586;2023-04-02T04:54:14;11.80;;;7.05;;
47251;SDS011;32991;51.374;11.586;2023-04-02T04:56:45;10.35;;;6.57;;
47251;SDS011;32991;51.374;11.586;2023-04-02T05:04:42;12.20;;;8.30;;
47251;SDS011;32991;51.374;11.586;2023-04-02T05:07:27;13.48;;;7.82;;
47251;SDS011;32991;51.374;11.586;2023-04-02T05:09:57;13.02;;;7.35;;
47251;SDS011;32991;51.374;11.586;2023-04-02T05:12:47;9.57;;;6.70;;
47251;SDS011;32991;51.374;11.586;2023-04-02T05:15:20;14.70;;;9.00;;
47251;SDS011;32991;51.374;11.586;2023-04-02T05:21:03;10.52;;;7.03;;
47251;SDS011;32991;51.374;11.586;2023-04-02T05:23:34;9.75;;;7.00;;
47251;SDS011;32991;51.374;11.586;2023-04-02T05:26:17;10.20;;;7.35;;
47251;SDS011;32991;51.374;11.586;2023-04-02T05:28:50;10.05;;;5.50;;
47251;SDS011;32991;51.374;11.586;2023-04-02T05:31:24;10.02;;;6.05;;
47251;SDS011;32991;51.374;11.586;2023-04-02T05:33:53;9.57;;;6.55;;
47251;SDS011;32991;51.374;11.586;2023-04-02T05:36:22;13.65;;;6.57;;
47251;SDS011;32991;51.374;11.586;2023-04-02T05:38:54;11.70;;;5.90;;
47251;SDS011;32991;51.374;11.586;2023-04-02T05:41:33;8.10;;;4.82;;
47251;SDS011;32991;51.374;11.586;2023-04-02T05:46:34;8.63;;;5.32;;
47251;SDS011;32991;51.374;11.586;2023-04-02T05:49:05;10.18;;;5.22;;
47251;SDS011;32991;51.374;11.586;2023-04-02T05:51:42;9.55;;;5.88;;
47251;SDS011;32991;51.374;11.586;2023-04-02T05:54:15;8.65;;;5.55;;
47251;SDS011;32991;51.374;11.586;2023-04-02T05:56:46;7.95;;;4.88;;
47251;SDS011;32991;51.374;11.586;2023-04-02T05:59:28;4.97;;;3.72;;
47251;SDS011;32991;51.374;11.586;2023-04-02T06:01:58;6.40;;;4.05;;
47251;SDS011;32991;51.374;11.586;2023-04-02T06:04:35;6.55;;;3.60;;
47251;SDS011;32991;51.374;11.586;2023-04-02T06:07:14;7.00;;;3.25;;
47251;SDS011;32991;51.374;11.586;2023-04-02T06:09:52;5.25;;;3.22;;
47251;SDS011;32991;51.374;11.586;2023-04-02T06:15:13;4.20;;;3.28;;
47251;SDS011;32991;51.374;11.586;2023-04-02T06:17:46;3.87;;;3.10;;
47251;SDS011;32991;51.374;11.586;2023-04-02T06:20:14;8.93;;;3.90;;
47251;SDS011;32991;51.374;11.586;2023-04-02T06:22:44;6.13;;;3.55;;
47251;SDS011;32991;51.374;11.586;2023-04-02T06:25:29;7.82;;;3.58;;
47251;SDS011;32991;51.374;11.586;2023-04-02T06:27:58;3.63;;;2.70;;
47251;SDS011;32991;51.374;11.586;2023-04-02T06:30:29;5.28;;;3.17;;
47251;SDS011;32991;51.374;11.586;2023-04-02T06:32:59;3.80;;;3.30;;
47251;SDS011;32991;51.374;11.586;2023-04-02T06:35:27;6.50;;;4.00;;
47251;SDS011;32991;51.374;11.586;2023-04-02T06:37:58;4.88;;;3.30;;
47251;SDS011;32991;51.374;11.586;2023-04-02T06:40:34;6.78;;;3.60;;
47251;SDS011;32991;51.374;11.586;2023-04-02T06:43:29;4.35;;;2.97;;
47251;SDS011;32991;51.374;11.586;2023-04-02T06:46:23;6.20;;;3.55;;
47251;SDS011;32991;51.374;11.586;2023-04-02T06:49:00;3.90;;;2.72;;
47251;SDS011;32991;51.374;11.586;2023-04-02T06:51:31;4.07;;;3.05;;
47251;SDS011;32991;51.374;11.586;2023-04-02T06:54:00;5.07;;;2.58;;
47251;SDS011;32991;51.374;11.586;2023-04-02T06:56:34;5.00;;;3.42;;
47251;SDS011;32991;51.374;11.586;2023-04-02T06:59:04;5.40;;;2.88;;
47251;SDS011;32991;51.374;11.586;2023-04-02T07:01:35;4.28;;;3.15;;
47251;SDS011;32991;51.374;11.586;2023-04-02T07:04:05;5.03;;;3.03;;
47251;SDS011;32991;51.374;11.586;2023-04-02T07:06:37;5.15;;;2.92;;
47251;SDS011;32991;51.374;11.586;2023-04-02T07:09:04;5.20;;;3.20;;
47251;SDS011;32991;51.374;11.586;2023-04-02T07:11:34;5.82;;;2.85;;
47251;SDS011;32991;51.374;11.586;2023-04-02T07:14:03;5.82;;;2.97;;
47251;SDS011;32991;51.374;11.586;2023-04-02T07:16:31;6.38;;;3.05;;
47251;SDS011;32991;51.374;11.586;2023-04-02T07:18:59;4.00;;;2.55;;
47251;SDS011;32991;51.374;11.586;2023-04-02T07:21:28;6.47;;;3.20;;
47251;SDS011;32991;51.374;11.586;2023-04-02T07:23:55;8.13;;;2.85;;
47251;SDS011;32991;51.374;11.586;2023-04-02T07:26:24;6.68;;;2.88;;
47251;SDS011;32991;51.374;11.586;2023-04-02T07:28:53;3.83;;;3.05;;
47251;SDS011;32991;51.374;11.586;2023-04-02T07:31:21;3.67;;;2.45;;
47251;SDS011;32991;51.374;11.586;2023-04-02T07:33:53;7.32;;;3.03;;
47251;SDS011;32991;51.374;11.586;2023-04-02T07:36:23;8.25;;;3.17;;
47251;SDS011;32991;51.374;11.586;2023-04-02T07:38:49;5.43;;;2.90;;
47251;SDS011;32991;51.374;11.586;2023-04-02T07:41:16;6.13;;;2.75;;
47251;SDS011;32991;51.374;11.586;2023-04-02T07:43:44;6.07;;;3.03;;
47251;SDS011;32991;51.374;11.586;2023-04-02T07:46:11;6.85;;;3.58;;
47251;SDS011;32991;51.374;11.586;2023-04-02T07:48:42;5.38;;;4.13;;
47251;SDS011;32991;51.374;11.586;2023-04-02T07:53:43;3.35;;;2.95;;
47251;SDS011;32991;51.374;11.586;2023-04-02T07:56:15;5.32;;;3.85;;
47251;SDS011;32991;51.374;11.586;2023-04-02T07:58:43;4.57;;;3.25;;
47251;SDS011;32991;51.374;11.586;2023-04-02T08:01:18;4.65;;;3.92;;
47251;SDS011;32991;51.374;11.586;2023-04-02T08:03:46;7.13;;;3.83;;
47251;SDS011;32991;51.374;11.586;2023-04-02T08:06:13;6.57;;;4.32;;
47251;SDS011;32991;51.374;11.586;2023-04-02T08:08:39;7.82;;;5.03;;
47251;SDS011;32991;51.374;11.586;2023-04-02T08:11:06;6.05;;;3.95;;
47251;SDS011;32991;51.374;11.586;2023-04-02T08:13:33;5.53;;;3.80;;
47251;SDS011;32991;51.374;11.586;2023-04-02T08:16:00;6.95;;;3.75;;
47251;SDS011;32991;51.374;11.586;2023-04-02T08:18:27;4.85;;;3.10;;
47251;SDS011;32991;51.374;11.586;2023-04-02T08:20:54;5.53;;;2.85;;
47251;SDS011;32991;51.374;11.586;2023-04-02T08:23:21;5.00;;;3.22;;
47251;SDS011;32991;51.374;11.586;2023-04-02T08:25:48;5.75;;;3.58;;
47251;SDS011;32991;51.374;11.586;2023-04-02T08:28:16;5.15;;;3.00;;
47251;SDS011;32991;51.374;11.586;2023-04-02T08:30:43;4.13;;;2.55;;
47251;SDS011;32991;51.374;11.586;2023-04-02T08:33:09;5.50;;;2.97;;
47251;SDS011;32991;51.374;11.586;2023-04-02T08:35:36;4.55;;;2.92;;
47251;SDS011;32991;51.374;11.586;2023-04-02T08:38:03;4.03;;;3.10;;
47251;SDS011;32991;51.374;11.586;2023-04-02T08:48:28;4.28;;;3.15;;
47251;SDS011;32991;51.374;11.586;2023-04-02T08:50:56;5.15;;;3.20;;
47251;SDS011;32991;51.374;11.586;2023-04-02T08:53:25;4.15;;;2.95;;
47251;SDS011;32991;51.374;11.586;2023-04-02T08:56:12;4.53;;;2.45;;
47251;SDS011;32991;51.374;11.586;2023-04-02T08:58:48;6.13;;;3.03;;
47251;SDS011;32991;51.374;11.586;2023-04-02T09:03:57;6.70;;;2.65;;
47251;SDS011;32991;51.374;11.586;2023-04-02T09:06:24;6.18;;;3.40;;
47251;SDS011;32991;51.374;11.586;2023-04-02T09:08:53;7.85;;;3.97;;
47251;SDS011;32991;51.374;11.586;2023-04-02T09:11:24;5.47;;;3.20;;
47251;SDS011;32991;51.374;11.586;2023-04-02T09:13:57;4.97;;;3.05;;
47251;SDS011;32991;51.374;11.586;2023-04-02T09:16:59;3.00;;;2.60;;
47251;SDS011;32991;51.374;11.586;2023-04-02T09:19:20;6.15;;;2.80;;
47251;SDS011;32991;51.374;11.586;2023-04-02T09:21:59;4.18;;;2.85;;
47251;SDS011;32991;51.374;11.586;2023-04-02T09:24:28;2.63;;;1.98;;
47251;SDS011;32991;51.374;11.586;2023-04-02T09:26:55;5.93;;;3.20;;
47251;SDS011;32991;51.374;11.586;2023-04-02T09:32:06;3.17;;;2.08;;
47251;SDS011;32991;51.374;11.586;2023-04-02T09:34:39;4.93;;;2.45;;
47251;SDS011;32991;51.374;11.586;2023-04-02T09:39:48;5.80;;;2.75;;
47251;SDS011;32991;51.374;11.586;2023-04-02T09:42:28;10.85;;;5.72;;
47251;SDS011;32991;51.374;11.586;2023-04-02T09:45:22;13.50;;;4.20;;
47251;SDS011;32991;51.374;11.586;2023-04-02T09:47:49;5.80;;;4.00;;
47251;SDS011;32991;51.374;11.586;2023-04-02T09:52:46;6.38;;;3.63;;
47251;SDS011;32991;51.374;11.586;2023-04-02T09:57:40;4.43;;;3.22;;
47251;SDS011;32991;51.374;11.586;2023-04-02T10:00:09;6.15;;;3.92;;
47251;SDS011;32991;51.374;11.586;2023-04-02T10:03:10;6.85;;;4.20;;
47251;SDS011;32991;51.374;11.586;2023-04-02T10:05:45;6.72;;;4.28;;
47251;SDS011;32991;51.374;11.586;2023-04-02T10:08:19;3.67;;;3.03;;
47251;SDS011;32991;51.374;11.586;2023-04-02T10:10:54;5.40;;;3.90;;
47251;SDS011;32991;51.374;11.586;2023-04-02T10:16:28;4.50;;;3.03;;
47251;SDS011;32991;51.374;11.586;2023-04-02T10:19:03;7.35;;;3.05;;
47251;SDS011;32991;51.374;11.586;2023-04-02T10:21:45;3.75;;;3.30;;
47251;SDS011;32991;51.374;11.586;2023-04-02T10:24:14;5.95;;;3.65;;
47251;SDS011;32991;51.374;11.586;2023-04-02T10:32:28;7.38;;;4.43;;
47251;SDS011;32991;51.374;11.586;2023-04-02T10:40:26;9.82;;;4.18;;
47251;SDS011;32991;51.374;11.586;2023-04-02T10:45:49;5.88;;;4.07;;
47251;SDS011;32991;51.374;11.586;2023-04-02T10:51:06;7.05;;;4.10;;
47251;SDS011;32991;51.374;11.586;2023-04-02T10:54:31;7.72;;;4.72;;
47251;SDS011;32991;51.374;11.586;2023-04-02T10:56:49;8.20;;;5.05;;
47251;SDS011;32991;51.374;11.586;2023-04-02T10:59:20;10.55;;;5.38;;
47251;SDS011;32991;51.374;11.586;2023-04-02T11:01:48;8.23;;;5.25;;
47251;SDS011;32991;51.374;11.586;2023-04-02T11:06:57;12.10;;;5.60;;
47251;SDS011;32991;51.374;11.586;2023-04-02T11:09:40;7.47;;;4.90;;
47251;SDS011;32991;51.374;11.586;2023-04-02T11:12:36;6.80;;;4.75;;
47251;SDS011;32991;51.374;11.586;2023-04-02T11:15:17;8.40;;;5.32;;
47251;SDS011;32991;51.374;11.586;2023-04-02T11:17:45;7.38;;;4.32;;
47251;SDS011;32991;51.374;11.586;2023-04-02T11:23:09;7.82;;;4.30;;
47251;SDS011;32991;51.374;11.586;2023-04-02T11:25:37;11.13;;;3.70;;
47251;SDS011;32991;51.374;11.586;2023-04-02T11:30:48;10.07;;;4.63;;
47251;SDS011;32991;51.374;11.586;2023-04-02T11:33:24;10.35;;;4.32;;
47251;SDS011;32991;51.374;11.586;2023-04-02T11:36:56;5.30;;;4.30;;
47251;SDS011;32991;51.374;11.586;2023-04-02T11:39:19;6.63;;;3.33;;
47251;SDS011;32991;51.374;11.586;2023-04-02T11:42:21;7.28;;;4.20;;
47251;SDS011;32991;51.374;11.586;2023-04-02T11:44:57;7.18;;;3.88;;
47251;SDS011;32991;51.374;11.586;2023-04-02T11:47:26;7.70;;;4.80;;
47251;SDS011;32991;51.374;11.586;2023-04-02T11:52:28;4.55;;;2.95;;
47251;SDS011;32991;51.374;11.586;2023-04-02T12:06:11;8.20;;;3.22;;
47251;SDS011;32991;51.374;11.586;2023-04-02T12:11:30;5.63;;;3.05;;
47251;SDS011;32991;51.374;11.586;2023-04-02T12:13:59;7.95;;;2.80;;
47251;SDS011;32991;51.374;11.586;2023-04-02T12:16:26;4.35;;;2.70;;
47251;SDS011;32991;51.374;11.586;2023-04-02T12:18:58;6.00;;;2.70;;
47251;SDS011;32991;51.374;11.586;2023-04-02T12:21:26;4.10;;;3.08;;
47251;SDS011;32991;51.374;11.586;2023-04-02T12:23:55;5.88;;;2.65;;
47251;SDS011;32991;51.374;11.586;2023-04-02T12:26:27;4.43;;;2.67;;
47251;SDS011;32991;51.374;11.586;2023-04-02T12:29:21;6.18;;;2.92;;
47251;SDS011;32991;51.374;11.586;2023-04-02T12:31:55;5.60;;;2.47;;
47251;SDS011;32991;51.374;11.586;2023-04-02T12:34:23;3.83;;;1.85;;
47251;SDS011;32991;51.374;11.586;2023-04-02T12:36:52;6.90;;;2.45;;
47251;SDS011;32991;51.374;11.586;2023-04-02T12:39:24;2.63;;;2.00;;
47251;SDS011;32991;51.374;11.586;2023-04-02T12:41:54;3.45;;;1.58;;
47251;SDS011;32991;51.374;11.586;2023-04-02T12:44:22;2.97;;;2.22;;
47251;SDS011;32991;51.374;11.586;2023-04-02T12:46:50;2.63;;;1.65;;
47251;SDS011;32991;51.374;11.586;2023-04-02T12:49:19;2.45;;;1.85;;
47251;SDS011;32991;51.374;11.586;2023-04-02T12:52:06;5.95;;;2.50;;
47251;SDS011;32991;51.374;11.586;2023-04-02T12:54:45;4.68;;;2.45;;
47251;SDS011;32991;51.374;11.586;2023-04-02T12:57:19;6.53;;;2.55;;
47251;SDS011;32991;51.374;11.586;2023-04-02T12:59:47;1.98;;;1.77;;
47251;SDS011;32991;51.374;11.586;2023-04-02T13:02:18;2.53;;;2.17;;
47251;SDS011;32991;51.374;11.586;2023-04-02T13:04:49;4.97;;;2.30;;
47251;SDS011;32991;51.374;11.586;2023-04-02T13:07:18;2.55;;;1.65;;
47251;SDS011;32991;51.374;11.586;2023-04-02T13:09:50;4.22;;;2.10;;
47251;SDS011;32991;51.374;11.586;2023-04-02T13:12:22;2.70;;;1.95;;
47251;SDS011;32991;51.374;11.586;2023-04-02T13:14:55;3.55;;;2.40;;
47251;SDS011;32991;51.374;11.586;2023-04-02T13:23:22;5.10;;;1.92;;
47251;SDS011;32991;51.374;11.586;2023-04-02T13:25:54;4.97;;;2.60;;
47251;SDS011;32991;51.374;11.586;2023-04-02T13:28:21;2.95;;;2.10;;
47251;SDS011;32991;51.374;11.586;2023-04-02T13:30:48;4.10;;;2.40;;
47251;SDS011;32991;51.374;11.586;2023-04-02T13:33:14;4.72;;;2.40;;
47251;SDS011;32991;51.374;11.586;2023-04-02T13:35:42;3.53;;;2.00;;
47251;SDS011;32991;51.374;11.586;2023-04-02T13:38:09;6.28;;;2.30;;
47251;SDS011;32991;51.374;11.586;2023-04-02T13:40:35;5.55;;;2.25;;
47251;SDS011;32991;51.374;11.586;2023-04-02T13:43:03;2.63;;;1.80;;
47251;SDS011;32991;51.374;11.586;2023-04-02T13:45:32;2.70;;;2.25;;
47251;SDS011;32991;51.374;11.586;2023-04-02T13:48:00;3.70;;;2.03;;
47251;SDS011;32991;51.374;11.586;2023-04-02T13:50:27;5.53;;;2.25;;
47251;SDS011;32991;51.374;11.586;2023-04-02T13:52:56;3.60;;;2.00;;
47251;SDS011;32991;51.374;11.586;2023-04-02T13:55:24;4.35;;;2.33;;
47251;SDS011;32991;51.374;11.586;2023-04-02T13:57:53;3.13;;;2.30;;
47251;SDS011;32991;51.374;11.586;2023-04-02T14:00:21;4.80;;;1.88;;
47251;SDS011;32991;51.374;11.586;2023-04-02T14:02:49;4.75;;;2.53;;
47251;SDS011;32991;51.374;11.586;2023-04-02T14:05:26;2.95;;;1.67;;
47251;SDS011;32991;51.374;11.586;2023-04-02T14:10:38;4.75;;;1.90;;
47251;SDS011;32991;51.374;11.586;2023-04-02T14:13:31;3.35;;;1.38;;
47251;SDS011;32991;51.374;11.586;2023-04-02T14:16:17;5.05;;;1.90;;
47251;SDS011;32991;51.374;11.586;2023-04-02T14:24:36;2.97;;;1.50;;
47251;SDS011;32991;51.374;11.586;2023-04-02T14:27:30;3.05;;;1.80;;
47251;SDS011;32991;51.374;11.586;2023-04-02T14:30:13;3.55;;;1.73;;
47251;SDS011;32991;51.374;11.586;2023-04-02T14:32:50;2.45;;;1.70;;
47251;SDS011;32991;51.374;11.586;2023-04-02T14:35:33;3.75;;;1.92;;
47251;SDS011;32991;51.374;11.586;2023-04-02T14:38:08;2.97;;;1.75;;
47251;SDS011;32991;51.374;11.586;2023-04-02T14:43:16;2.40;;;1.88;;
47251;SDS011;32991;51.374;11.586;2023-04-02T14:46:04;4.05;;;1.70;;
47251;SDS011;32991;51.374;11.586;2023-04-02T14:51:26;4.00;;;2.25;;
47251;SDS011;32991;51.374;11.586;2023-04-02T14:56:45;4.47;;;1.75;;
47251;SDS011;32991;51.374;11.586;2023-04-02T14:59:33;4.78;;;2.30;;
47251;SDS011;32991;51.374;11.586;2023-04-02T15:02:08;4.28;;;2.10;;
47251;SDS011;32991;51.374;11.586;2023-04-02T15:04:40;3.55;;;2.00;;
47251;SDS011;32991;51.374;11.586;2023-04-02T15:07:13;3.20;;;1.80;;
47251;SDS011;32991;51.374;11.586;2023-04-02T15:10:27;2.17;;;1.55;;
47251;SDS011;32991;51.374;11.586;2023-04-02T15:12:46;3.17;;;1.80;;
47251;SDS011;32991;51.374;11.586;2023-04-02T15:15:19;5.45;;;2.42;;
47251;SDS011;32991;51.374;11.586;2023-04-02T15:18:13;4.90;;;1.90;;
47251;SDS011;32991;51.374;11.586;2023-04-02T15:23:30;4.38;;;2.42;;
47251;SDS011;32991;51.374;11.586;2023-04-02T15:28:50;4.57;;;2.55;;
47251;SDS011;32991;51.374;11.586;2023-04-02T15:31:20;5.00;;;1.83;;
47251;SDS011;32991;51.374;11.586;2023-04-02T15:33:52;3.85;;;1.90;;
47251;SDS011;32991;51.374;11.586;2023-04-02T15:36:29;3.72;;;1.85;;
47251;SDS011;32991;51.374;11.586;2023-04-02T15:39:16;2.67;;;1.60;;
47251;SDS011;32991;51.374;11.586;2023-04-02T15:44:30;5.70;;;2.75;;
47251;SDS011;32991;51.374;11.586;2023-04-02T15:49:29;5.38;;;2.60;;
47251;SDS011;32991;51.374;11.586;2023-04-02T15:52:07;3.53;;;2.63;;
47251;SDS011;32991;51.374;11.586;2023-04-02T15:57:13;4.90;;;2.88;;
47251;SDS011;32991;51.374;11.586;2023-04-02T16:10:47;6.32;;;2.60;;
47251;SDS011;32991;51.374;11.586;2023-04-02T16:13:24;3.42;;;1.83;;
47251;SDS011;32991;51.374;11.586;2023-04-02T16:16:05;5.65;;;2.58;;
47251;SDS011;32991;51.374;11.586;2023-04-02T16:21:22;7.20;;;3.65;;
47251;SDS011;32991;51.374;11.586;2023-04-02T16:23:50;5.13;;;1.80;;
47251;SDS011;32991;51.374;11.586;2023-04-02T16:26:40;3.00;;;1.77;;
47251;SDS011;32991;51.374;11.586;2023-04-02T16:35:10;3.15;;;1.80;;
47251;SDS011;32991;51.374;11.586;2023-04-02T16:38:08;2.63;;;1.20;;
47251;SDS011;32991;51.374;11.586;2023-04-02T16:46:57;4.53;;;1.60;;
47251;SDS011;32991;51.374;11.586;2023-04-02T16:49:40;5.15;;;1.42;;
47251;SDS011;32991;51.374;11.586;2023-04-02T17:08:42;2.53;;;1.25;;
47251;SDS011;32991;51.374;11.586;2023-04-02T17:11:24;3.00;;;1.60;;
47251;SDS011;32991;51.374;11.586;2023-04-02T17:14:04;5.40;;;1.58;;
47251;SDS011;32991;51.374;11.586;2023-04-02T17:16:35;5.15;;;1.80;;
47251;SDS011;32991;51.374;11.586;2023-04-02T17:19:11;4.25;;;1.42;;
47251;SDS011;32991;51.374;11.586;2023-04-02T17:21:41;5.10;;;1.67;;
47251;SDS011;32991;51.374;11.586;2023-04-02T17:24:14;2.28;;;1.10;;
47251;SDS011;32991;51.374;11.586;2023-04-02T17:29:20;5.28;;;1.55;;
47251;SDS011;32991;51.374;11.586;2023-04-02T17:31:49;5.05;;;1.30;;
47251;SDS011;32991;51.374;11.586;2023-04-02T17:34:17;2.65;;;1.60;;
47251;SDS011;32991;51.374;11.586;2023-04-02T17:39:39;4.50;;;1.30;;
47251;SDS011;32991;51.374;11.586;2023-04-02T17:47:31;2.28;;;1.13;;
47251;SDS011;32991;51.374;11.586;2023-04-02T17:53:54;3.67;;;1.48;;
47251;SDS011;32991;51.374;11.586;2023-04-02T17:59:11;4.90;;;1.63;;
47251;SDS011;32991;51.374;11.586;2023-04-02T18:02:03;3.70;;;1.52;;
47251;SDS011;32991;51.374;11.586;2023-04-02T18:04:46;5.47;;;1.73;;
47251;SDS011;32991;51.374;11.586;2023-04-02T18:07:27;2.63;;;1.40;;
47251;SDS011;32991;51.374;11.586;2023-04-02T18:12:54;3.28;;;1.58;;
47251;SDS011;32991;51.374;11.586;2023-04-02T18:15:42;5.63;;;1.63;;
47251;SDS011;32991;51.374;11.586;2023-04-02T18:21:09;5.45;;;1.42;;
47251;SDS011;32991;51.374;11.586;2023-04-02T18:27:00;10.70;;;3.47;;
47251;SDS011;32991;51.374;11.586;2023-04-02T18:29:50;7.00;;;2.08;;
47251;SDS011;32991;51.374;11.586;2023-04-02T18:35:30;4.63;;;1.52;;
47251;SDS011;32991;51.374;11.586;2023-04-02T18:38:10;3.63;;;1.17;;
47251;SDS011;32991;51.374;11.586;2023-04-02T18:48:53;3.20;;;1.15;;
47251;SDS011;32991;51.374;11.586;2023-04-02T18:51:23;3.33;;;1.50;;
47251;SDS011;32991;51.374;11.586;2023-04-02T18:54:00;4.38;;;1.13;;
47251;SDS011;32991;51.374;11.586;2023-04-02T18:56:38;5.95;;;1.52;;
47251;SDS011;32991;51.374;11.586;2023-04-02T19:02:15;2.25;;;1.00;;
47251;SDS011;32991;51.374;11.586;2023-04-02T19:04:57;4.40;;;1.30;;
47251;SDS011;32991;51.374;11.586;2023-04-02T19:07:27;3.15;;;1.55;;
47251;SDS011;32991;51.374;11.586;2023-04-02T19:09:54;6.07;;;1.48;;
47251;SDS011;32991;51.374;11.586;2023-04-02T19:12:21;1.63;;;1.20;;
47251;SDS011;32991;51.374;11.586;2023-04-02T19:14:48;3.40;;;1.85;;
47251;SDS011;32991;51.374;11.586;2023-04-02T19:20:17;6.13;;;1.38;;
47251;SDS011;32991;51.374;11.586;2023-04-02T19:25:35;4.22;;;1.42;;
47251;SDS011;32991;51.374;11.586;2023-04-02T19:38:59;8.38;;;3.58;;
47251;SDS011;32991;51.374;11.586;2023-04-02T19:44:01;2.30;;;1.23;;
47251;SDS011;32991;51.374;11.586;2023-04-02T19:46:27;7.35;;;1.45;;
47251;SDS011;32991;51.374;11.586;2023-04-02T19:49:03;2.90;;;1.13;;
47251;SDS011;32991;51.374;11.586;2023-04-02T19:51:32;4.50;;;1.20;;
47251;SDS011;32991;51.374;11.586;2023-04-02T19:53:59;3.50;;;1.40;;